Time;durP1;ratioP1;P1;durP2;ratioP2;P2;SDS_P1;SDS_P2;PMS_P1;PMS_P2;Temp;Humidity;BMP_temperature;BMP_pressure;BME280_temperature;BME280_humidity;BME280_pressure;Samples;Min_cycle;Max_cycle;Signal;HPM_P1;HPM_P2
2023/03/04 00:01:43;;;;;;;15.05;3.78;;;;;;;;;;5032101;28;20434;-61
2023/03/04 00:04:08;;;;;;;16.45;3.53;;;;;;;;;;5030716;28;20091;-61
2023/03/04 00:06:34;;;;;;;15.98;3.60;;;;;;;;;;5037180;28;20037;-61
2023/03/04 00:08:59;;;;;;;12.90;3.40;;;;;;;;;;5012727;28;20532;-60
2023/03/04 00:11:25;;;;;;;11.90;3.05;;;;;;;;;;5027867;28;20069;-61
2023/03/04 00:13:51;;;;;;;16.25;3.80;;;;;;;;;;5012680;28;20461;-61
2023/03/04 00:16:17;;;;;;;15.18;3.63;;;;;;;;;;5033033;28;20056;-61
2023/03/04 00:18:42;;;;;;;15.93;3.90;;;;;;;;;;5032250;28;20061;-62
2023/03/04 00:21:07;;;;;;;17.48;3.97;;;;;;;;;;5031960;28;20025;-61
2023/03/04 00:23:33;;;;;;;12.48;3.45;;;;;;;;;;5032131;28;20120;-61
2023/03/04 00:25:58;;;;;;;15.00;4.32;;;;;;;;;;5030080;28;20029;-61
2023/03/04 00:28:23;;;;;;;14.45;3.70;;;;;;;;;;5036170;28;20060;-60
2023/03/04 00:30:49;;;;;;;13.95;4.35;;;;;;;;;;5031680;28;20025;-62
2023/03/04 00:33:15;;;;;;;15.20;3.47;;;;;;;;;;5032669;28;20041;-61
2023/03/04 00:35:41;;;;;;;14.98;3.50;;;;;;;;;;5024652;28;20149;-63
2023/03/04 00:38:06;;;;;;;16.63;3.45;;;;;;;;;;5032443;28;20041;-61
2023/03/04 00:40:32;;;;;;;16.50;3.25;;;;;;;;;;5025760;28;20124;-61
2023/03/04 00:42:57;;;;;;;11.05;3.47;;;;;;;;;;5023189;28;20034;-62
2023/03/04 00:45:23;;;;;;;10.98;3.33;;;;;;;;;;5029124;28;20073;-61
2023/03/04 00:47:48;;;;;;;17.45;3.45;;;;;;;;;;5023291;28;20056;-62
2023/03/04 00:50:14;;;;;;;13.07;3.40;;;;;;;;;;5032778;28;20032;-61
2023/03/04 00:52:39;;;;;;;17.42;3.42;;;;;;;;;;5032135;28;20442;-61
2023/03/04 00:55:05;;;;;;;12.15;3.05;;;;;;;;;;5031693;28;20079;-61
2023/03/04 00:57:31;;;;;;;17.38;3.22;;;;;;;;;;5032668;28;20385;-61
2023/03/04 00:59:56;;;;;;;19.80;3.80;;;;;;;;;;5030196;28;20494;-62
2023/03/04 01:02:21;;;;;;;14.40;3.45;;;;;;;;;;5031518;28;20057;-61
2023/03/04 01:04:47;;;;;;;16.13;3.92;;;;;;;;;;5030373;28;20354;-63
2023/03/04 01:07:12;;;;;;;13.77;3.13;;;;;;;;;;5035182;28;20033;-62
2023/03/04 01:09:38;;;;;;;11.93;3.42;;;;;;;;;;5031496;28;20029;-61
2023/03/04 01:12:03;;;;;;;14.07;3.35;;;;;;;;;;5033494;28;20032;-65
2023/03/04 01:14:28;;;;;;;17.90;3.72;;;;;;;;;;5019554;28;20026;-62
2023/03/04 01:16:54;;;;;;;13.10;3.33;;;;;;;;;;5024001;28;20370;-62
2023/03/04 01:19:20;;;;;;;13.88;3.70;;;;;;;;;;5022143;28;20065;-61
2023/03/04 01:21:45;;;;;;;17.30;3.17;;;;;;;;;;5027569;28;20033;-62
2023/03/04 01:24:11;;;;;;;10.55;3.10;;;;;;;;;;5031449;28;20129;-62
2023/03/04 01:26:36;;;;;;;17.25;3.58;;;;;;;;;;5030150;28;20038;-62
2023/03/04 01:29:02;;;;;;;11.82;2.97;;;;;;;;;;5029371;28;20064;-62
2023/03/04 01:31:27;;;;;;;18.02;3.20;;;;;;;;;;5030780;28;20037;-60
2023/03/04 01:33:53;;;;;;;16.17;3.58;;;;;;;;;;5031660;28;20440;-61
2023/03/04 01:36:18;;;;;;;17.42;3.70;;;;;;;;;;5044698;28;20029;-61
2023/03/04 01:38:44;;;;;;;14.70;3.50;;;;;;;;;;5031232;28;20041;-63
2023/03/04 01:41:11;;;;;;;12.45;3.15;;;;;;;;;;5023757;28;20033;-61
2023/03/04 01:43:37;;;;;;;11.60;2.90;;;;;;;;;;5030209;28;20053;-60
2023/03/04 01:46:03;;;;;;;18.13;4.25;;;;;;;;;;5029965;28;20116;-61
2023/03/04 01:48:37;;;;;;;20.05;2.90;;;;;;;;;;5029492;28;20470;-61
2023/03/04 01:51:11;;;;;;;14.40;3.25;;;;;;;;;;5014959;28;20110;-60
2023/03/04 01:53:36;;;;;;;15.93;3.15;;;;;;;;;;5020091;28;20480;-61
2023/03/04 01:56:15;;;;;;;9.90;3.10;;;;;;;;;;5016037;28;20042;-61
2023/03/04 01:58:41;;;;;;;8.02;3.03;;;;;;;;;;5023057;28;20087;-61
2023/03/04 02:01:06;;;;;;;18.08;4.47;;;;;;;;;;5013315;28;20038;-61
2023/03/04 02:03:31;;;;;;;15.95;3.40;;;;;;;;;;5029625;28;20120;-62
2023/03/04 02:05:57;;;;;;;15.32;3.20;;;;;;;;;;5024845;28;20034;-61
2023/03/04 02:08:23;;;;;;;12.68;3.22;;;;;;;;;;5034146;28;20117;-60
2023/03/04 02:10:50;;;;;;;10.50;2.70;;;;;;;;;;5030736;28;20065;-60
2023/03/04 02:13:16;;;;;;;12.18;2.88;;;;;;;;;;5029893;28;20060;-62
2023/03/04 02:15:43;;;;;;;15.93;3.30;;;;;;;;;;5011811;28;20034;-62
2023/03/04 02:18:18;;;;;;;14.43;3.45;;;;;;;;;;5016050;28;20041;-62
2023/03/04 02:20:47;;;;;;;10.30;2.90;;;;;;;;;;5031115;28;20092;-61
2023/03/04 02:23:23;;;;;;;11.98;2.80;;;;;;;;;;5026324;28;20038;-62
2023/03/04 02:25:53;;;;;;;11.30;2.80;;;;;;;;;;5031029;28;20065;-61
2023/03/04 02:28:19;;;;;;;15.93;3.55;;;;;;;;;;5012201;28;20022;-61
2023/03/04 02:30:45;;;;;;;16.67;3.25;;;;;;;;;;5030445;28;20060;-61
2023/03/04 02:33:16;;;;;;;11.98;2.90;;;;;;;;;;5027935;28;20044;-61
2023/03/04 02:35:42;;;;;;;13.90;2.88;;;;;;;;;;5030983;28;20505;-61
2023/03/04 02:38:10;;;;;;;14.30;3.40;;;;;;;;;;5011566;28;20057;-62
2023/03/04 02:40:36;;;;;;;15.07;3.35;;;;;;;;;;5030262;28;20057;-61
2023/03/04 02:43:02;;;;;;;11.82;3.30;;;;;;;;;;5030504;28;20112;-61
2023/03/04 02:45:37;;;;;;;12.02;2.83;;;;;;;;;;5042014;28;20129;-61
2023/03/04 02:48:03;;;;;;;15.35;3.75;;;;;;;;;;5032801;28;20033;-61
2023/03/04 02:50:34;;;;;;;13.05;3.00;;;;;;;;;;5021514;28;20029;-60
2023/03/04 02:53:00;;;;;;;12.60;2.95;;;;;;;;;;5023451;28;20029;-62
2023/03/04 02:55:25;;;;;;;12.23;2.90;;;;;;;;;;5034274;28;20100;-61
2023/03/04 02:57:50;;;;;;;18.02;3.10;;;;;;;;;;5032470;28;20524;-61
2023/03/04 03:00:16;;;;;;;10.43;2.90;;;;;;;;;;5034601;28;20033;-61
2023/03/04 03:02:42;;;;;;;16.45;3.00;;;;;;;;;;5032566;28;20033;-61
2023/03/04 03:05:07;;;;;;;15.43;3.40;;;;;;;;;;5025524;28;20041;-61
2023/03/04 03:07:33;;;;;;;11.75;2.72;;;;;;;;;;5032322;28;20044;-62
2023/03/04 03:09:59;;;;;;;14.90;2.75;;;;;;;;;;5022301;28;20036;-63
2023/03/04 03:12:25;;;;;;;12.05;2.88;;;;;;;;;;5033736;28;20057;-62
2023/03/04 03:14:51;;;;;;;16.08;3.17;;;;;;;;;;5032465;28;20072;-63
2023/03/04 03:17:16;;;;;;;11.30;3.03;;;;;;;;;;5032399;28;20481;-61
2023/03/04 03:19:41;;;;;;;16.98;3.55;;;;;;;;;;5032193;28;20045;-60
2023/03/04 03:22:08;;;;;;;13.27;2.90;;;;;;;;;;5036613;28;20037;-60
2023/03/04 03:24:33;;;;;;;17.50;2.90;;;;;;;;;;5019024;28;20485;-63
2023/03/04 03:26:59;;;;;;;11.73;2.95;;;;;;;;;;5014935;28;20041;-61
2023/03/04 03:29:24;;;;;;;11.07;2.95;;;;;;;;;;5034010;28;20041;-62
2023/03/04 03:31:49;;;;;;;10.95;2.75;;;;;;;;;;5031421;28;20029;-62
2023/03/04 03:34:15;;;;;;;11.82;3.20;;;;;;;;;;5033349;28;20084;-63
2023/03/04 03:36:40;;;;;;;12.50;3.20;;;;;;;;;;5032900;28;20026;-62
2023/03/04 03:39:06;;;;;;;9.90;2.70;;;;;;;;;;5022191;28;20041;-61
2023/03/04 03:41:31;;;;;;;16.25;3.53;;;;;;;;;;5031316;28;20107;-63
2023/03/04 03:43:56;;;;;;;9.82;2.22;;;;;;;;;;5027903;28;20045;-63
2023/03/04 03:46:22;;;;;;;10.82;2.58;;;;;;;;;;5015577;28;20061;-61
2023/03/04 03:48:47;;;;;;;16.85;2.90;;;;;;;;;;5031779;28;20033;-62
2023/03/04 03:51:12;;;;;;;13.30;2.40;;;;;;;;;;5032362;28;20021;-61
2023/03/04 03:53:38;;;;;;;11.88;2.92;;;;;;;;;;5018507;28;20073;-61
2023/03/04 03:56:04;;;;;;;14.23;2.63;;;;;;;;;;5030750;28;20037;-61
2023/03/04 03:58:29;;;;;;;9.02;2.40;;;;;;;;;;5030630;28;20474;-61
2023/03/04 04:00:54;;;;;;;18.38;2.80;;;;;;;;;;5032359;28;20079;-62
2023/03/04 04:03:20;;;;;;;10.27;2.80;;;;;;;;;;5031926;28;20049;-61
2023/03/04 04:05:45;;;;;;;12.77;2.47;;;;;;;;;;5030279;28;20034;-61
2023/03/04 04:08:17;;;;;;;9.05;2.50;;;;;;;;;;5035486;28;20094;-61
2023/03/04 04:10:43;;;;;;;14.10;2.70;;;;;;;;;;5032132;28;20389;-61
2023/03/04 04:13:09;;;;;;;12.50;2.78;;;;;;;;;;5032657;28;20040;-62
2023/03/04 04:15:35;;;;;;;10.02;2.53;;;;;;;;;;5032627;28;20367;-62
2023/03/04 04:18:00;;;;;;;10.70;2.50;;;;;;;;;;5032538;28;20033;-61
2023/03/04 04:20:26;;;;;;;11.52;2.63;;;;;;;;;;5023077;28;20030;-61
2023/03/04 04:22:51;;;;;;;12.27;2.50;;;;;;;;;;5013509;28;20037;-61
2023/03/04 04:25:17;;;;;;;9.40;2.42;;;;;;;;;;5030577;28;20586;-61
2023/03/04 04:27:42;;;;;;;11.40;2.80;;;;;;;;;;5032497;28;20381;-61
2023/03/04 04:30:08;;;;;;;11.63;2.45;;;;;;;;;;5030382;28;20327;-60
2023/03/04 04:32:33;;;;;;;5.88;2.25;;;;;;;;;;5030635;28;20113;-60
2023/03/04 04:34:59;;;;;;;8.50;2.35;;;;;;;;;;5029088;28;20116;-61
2023/03/04 04:37:24;;;;;;;10.30;2.17;;;;;;;;;;5031713;28;20065;-62
2023/03/04 04:39:50;;;;;;;9.30;2.40;;;;;;;;;;5029239;28;20122;-61
2023/03/04 04:42:16;;;;;;;11.95;2.20;;;;;;;;;;5029408;28;20670;-61
2023/03/04 04:44:42;;;;;;;9.25;2.67;;;;;;;;;;5031979;28;20387;-61
2023/03/04 04:47:08;;;;;;;9.73;2.30;;;;;;;;;;5029257;28;20064;-61
2023/03/04 04:49:34;;;;;;;11.15;2.30;;;;;;;;;;5014039;28;20029;-61
2023/03/04 04:51:59;;;;;;;13.52;2.40;;;;;;;;;;5030773;28;20021;-62
2023/03/04 04:54:25;;;;;;;12.00;2.70;;;;;;;;;;5013512;28;20036;-61
2023/03/04 04:56:50;;;;;;;7.60;2.10;;;;;;;;;;5031705;28;20045;-60
2023/03/04 04:59:16;;;;;;;8.60;2.53;;;;;;;;;;5029253;28;20033;-61
2023/03/04 05:01:42;;;;;;;9.77;2.20;;;;;;;;;;5031208;28;20477;-61
2023/03/04 05:04:07;;;;;;;6.53;2.10;;;;;;;;;;5028113;28;20069;-61
2023/03/04 05:06:33;;;;;;;11.15;2.38;;;;;;;;;;5030540;28;20064;-61
2023/03/04 05:08:58;;;;;;;11.55;2.10;;;;;;;;;;5032957;28;20044;-61
2023/03/04 05:11:24;;;;;;;13.13;2.47;;;;;;;;;;5030150;28;20462;-61
2023/03/04 05:13:49;;;;;;;13.10;2.70;;;;;;;;;;5022246;28;20095;-62
2023/03/04 05:16:15;;;;;;;13.10;2.58;;;;;;;;;;5011952;28;20534;-62
2023/03/04 05:18:41;;;;;;;10.63;2.45;;;;;;;;;;5031564;28;20038;-60
2023/03/04 05:21:07;;;;;;;9.18;2.50;;;;;;;;;;5031143;28;20055;-61
2023/03/04 05:23:36;;;;;;;12.20;2.50;;;;;;;;;;5029192;28;20064;-61
2023/03/04 05:26:03;;;;;;;10.43;2.95;;;;;;;;;;5029585;28;20127;-61
2023/03/04 05:28:29;;;;;;;13.95;2.47;;;;;;;;;;5031224;28;20482;-61
2023/03/04 05:30:55;;;;;;;11.10;2.55;;;;;;;;;;5030753;28;20029;-60
2023/03/04 05:33:20;;;;;;;9.85;2.65;;;;;;;;;;5034218;28;20036;-62
2023/03/04 05:35:47;;;;;;;6.90;2.17;;;;;;;;;;5029156;28;20163;-62
2023/03/04 05:38:15;;;;;;;10.73;2.63;;;;;;;;;;5029973;28;20115;-61
2023/03/04 05:40:41;;;;;;;7.82;2.40;;;;;;;;;;5027564;28;20040;-61
2023/03/04 05:43:07;;;;;;;12.13;2.25;;;;;;;;;;5028598;28;20389;-62
2023/03/04 05:45:32;;;;;;;11.98;2.40;;;;;;;;;;5017698;28;20505;-62
2023/03/04 05:47:58;;;;;;;7.55;2.40;;;;;;;;;;5006321;28;20055;-62
2023/03/04 05:50:24;;;;;;;8.05;2.40;;;;;;;;;;5029989;28;20033;-62
2023/03/04 05:52:49;;;;;;;9.05;2.30;;;;;;;;;;5038399;28;20095;-61
2023/03/04 05:55:16;;;;;;;8.95;2.60;;;;;;;;;;5031018;28;20108;-61
2023/03/04 05:57:42;;;;;;;10.82;2.85;;;;;;;;;;5030523;28;20087;-61
2023/03/04 06:00:09;;;;;;;9.88;2.30;;;;;;;;;;5031262;28;20045;-62
2023/03/04 06:02:35;;;;;;;11.57;2.60;;;;;;;;;;5022548;28;20470;-61
2023/03/04 06:05:02;;;;;;;13.38;2.85;;;;;;;;;;5011966;28;20076;-62
2023/03/04 06:07:27;;;;;;;10.10;2.95;;;;;;;;;;5024721;28;20042;-61
2023/03/04 06:09:53;;;;;;;8.27;2.30;;;;;;;;;;5031773;28;20029;-60
2023/03/04 06:12:18;;;;;;;8.52;2.40;;;;;;;;;;5013065;28;20045;-61
2023/03/04 06:14:43;;;;;;;13.02;2.45;;;;;;;;;;5031000;28;20067;-60
2023/03/04 06:17:09;;;;;;;9.60;2.55;;;;;;;;;;5030138;28;20030;-61
2023/03/04 06:19:36;;;;;;;8.23;2.63;;;;;;;;;;5037260;28;20029;-61
2023/03/04 06:22:02;;;;;;;13.98;2.40;;;;;;;;;;5036755;28;20060;-63
2023/03/04 06:24:28;;;;;;;14.65;2.30;;;;;;;;;;5037987;28;20029;-63
2023/03/04 06:26:53;;;;;;;6.65;2.10;;;;;;;;;;5037168;28;20052;-62
2023/03/04 06:29:19;;;;;;;14.27;3.67;;;;;;;;;;5034488;28;20491;-62
2023/03/04 06:31:44;;;;;;;9.25;2.33;;;;;;;;;;5037958;28;20061;-61
2023/03/04 06:34:10;;;;;;;11.75;2.17;;;;;;;;;;5034870;28;20040;-62
2023/03/04 06:36:36;;;;;;;8.50;2.47;;;;;;;;;;5037277;28;20061;-62
2023/03/04 06:39:03;;;;;;;11.82;2.42;;;;;;;;;;5036989;28;20030;-62
2023/03/04 06:41:28;;;;;;;10.07;2.30;;;;;;;;;;5037154;28;20043;-61
2023/03/04 06:43:54;;;;;;;10.38;2.40;;;;;;;;;;5038026;28;20057;-61
2023/03/04 06:46:19;;;;;;;9.98;2.40;;;;;;;;;;5035573;28;20117;-62
2023/03/04 06:48:45;;;;;;;11.15;2.40;;;;;;;;;;5037518;28;20041;-61
2023/03/04 06:51:11;;;;;;;15.63;2.97;;;;;;;;;;5036552;28;20037;-60
2023/03/04 06:53:38;;;;;;;11.15;2.67;;;;;;;;;;5037078;28;20025;-61
2023/03/04 06:56:04;;;;;;;10.48;2.70;;;;;;;;;;5034691;28;20083;-65
2023/03/04 06:58:29;;;;;;;6.72;2.22;;;;;;;;;;5036474;28;20045;-63
2023/03/04 07:00:55;;;;;;;8.88;2.17;;;;;;;;;;5021535;28;20037;-62
2023/03/04 07:03:20;;;;;;;13.52;2.45;;;;;;;;;;5036819;28;20037;-64
2023/03/04 07:05:46;;;;;;;10.40;2.30;;;;;;;;;;5037363;28;20037;-62
2023/03/04 07:08:11;;;;;;;11.73;2.40;;;;;;;;;;5035913;28;20474;-64
2023/03/04 07:10:37;;;;;;;12.10;2.05;;;;;;;;;;5036639;28;20029;-64
2023/03/04 07:13:02;;;;;;;12.80;2.30;;;;;;;;;;5037760;28;20377;-63
2023/03/04 07:15:28;;;;;;;8.10;2.00;;;;;;;;;;5036599;28;20072;-62
2023/03/04 07:17:53;;;;;;;8.32;2.30;;;;;;;;;;5036540;28;20100;-62
2023/03/04 07:20:19;;;;;;;5.50;2.20;;;;;;;;;;5019113;28;20454;-63
2023/03/04 07:22:44;;;;;;;8.10;2.20;;;;;;;;;;5037089;28;20568;-66
2023/03/04 07:25:10;;;;;;;5.38;2.10;;;;;;;;;;5036941;28;20420;-63
2023/03/04 07:27:37;;;;;;;6.88;2.10;;;;;;;;;;5035435;28;20033;-63
2023/03/04 07:30:03;;;;;;;9.20;2.50;;;;;;;;;;5017204;28;20064;-62
2023/03/04 07:32:29;;;;;;;8.88;2.80;;;;;;;;;;5036128;28;20044;-62
2023/03/04 07:34:54;;;;;;;7.85;2.22;;;;;;;;;;5033449;28;20033;-62
2023/03/04 07:37:20;;;;;;;8.75;2.45;;;;;;;;;;5015408;28;20041;-63
2023/03/04 07:39:45;;;;;;;9.45;2.40;;;;;;;;;;5033734;28;20052;-63
2023/03/04 07:42:10;;;;;;;12.90;2.28;;;;;;;;;;5033123;28;20060;-63
2023/03/04 07:44:36;;;;;;;11.80;2.25;;;;;;;;;;5031735;28;20072;-62
2023/03/04 07:47:01;;;;;;;9.85;2.67;;;;;;;;;;5034482;28;20441;-62
2023/03/04 07:49:26;;;;;;;7.63;2.35;;;;;;;;;;5032269;28;20083;-62
2023/03/04 07:51:52;;;;;;;8.05;2.45;;;;;;;;;;5033745;28;20060;-63
2023/03/04 07:54:19;;;;;;;8.18;2.03;;;;;;;;;;5029494;28;20079;-62
2023/03/04 07:56:44;;;;;;;7.22;2.22;;;;;;;;;;5020951;28;20033;-63
2023/03/04 07:59:10;;;;;;;8.70;2.15;;;;;;;;;;5013421;28;20033;-63
2023/03/04 08:01:36;;;;;;;7.93;2.28;;;;;;;;;;5024860;28;20498;-64
2023/03/04 08:04:04;;;;;;;7.72;2.30;;;;;;;;;;5033987;28;20044;-62
2023/03/04 08:06:30;;;;;;;9.10;2.53;;;;;;;;;;5031185;28;20081;-63
2023/03/04 08:09:00;;;;;;;8.40;2.03;;;;;;;;;;5027933;28;20068;-64
2023/03/04 08:11:28;;;;;;;8.80;2.47;;;;;;;;;;5013192;28;20386;-63
2023/03/04 08:13:54;;;;;;;6.53;2.20;;;;;;;;;;5018454;28;20034;-63
2023/03/04 08:16:21;;;;;;;7.70;2.70;;;;;;;;;;5032064;28;20029;-63
2023/03/04 08:18:49;;;;;;;10.93;2.38;;;;;;;;;;5015078;28;20446;-63
2023/03/04 08:21:18;;;;;;;7.00;1.80;;;;;;;;;;5014869;28;20461;-64
2023/03/04 08:23:44;;;;;;;4.68;1.80;;;;;;;;;;5032584;28;20041;-64
2023/03/04 08:26:13;;;;;;;8.13;2.30;;;;;;;;;;5032786;28;20068;-64
2023/03/04 08:28:39;;;;;;;7.45;2.20;;;;;;;;;;5013779;28;20052;-63
2023/03/04 08:31:04;;;;;;;5.47;2.10;;;;;;;;;;5033429;28;20039;-63
2023/03/04 08:33:31;;;;;;;7.68;2.08;;;;;;;;;;5030602;28;20034;-63
2023/03/04 08:35:56;;;;;;;14.70;2.90;;;;;;;;;;5030014;28;20389;-63
2023/03/04 08:38:22;;;;;;;7.95;2.22;;;;;;;;;;5029027;28;20117;-63
2023/03/04 08:40:55;;;;;;;7.22;2.00;;;;;;;;;;5033467;28;20382;-64
2023/03/04 08:43:20;;;;;;;8.40;2.33;;;;;;;;;;5032898;28;20036;-65
2023/03/04 08:45:46;;;;;;;8.02;2.20;;;;;;;;;;5032256;28;20037;-63
2023/03/04 08:48:11;;;;;;;9.43;2.65;;;;;;;;;;5030652;28;20470;-63
2023/03/04 08:50:37;;;;;;;6.63;2.03;;;;;;;;;;5030292;28;20033;-62
2023/03/04 08:53:02;;;;;;;3.95;1.90;;;;;;;;;;5018655;28;20389;-64
2023/03/04 08:55:27;;;;;;;6.50;2.20;;;;;;;;;;5033212;28;20048;-64
2023/03/04 08:57:53;;;;;;;8.65;2.50;;;;;;;;;;5030379;28;20478;-63
2023/03/04 09:00:20;;;;;;;9.77;2.90;;;;;;;;;;5032862;28;20103;-63
2023/03/04 09:02:45;;;;;;;9.07;2.40;;;;;;;;;;5032708;28;20171;-63
2023/03/04 09:05:10;;;;;;;5.38;2.47;;;;;;;;;;5030295;28;20072;-62
2023/03/04 09:07:36;;;;;;;8.35;2.30;;;;;;;;;;5031244;28;20029;-63
2023/03/04 09:10:02;;;;;;;7.97;2.58;;;;;;;;;;5028281;28;20076;-62
2023/03/04 09:12:27;;;;;;;10.00;2.78;;;;;;;;;;5030366;28;20105;-62
2023/03/04 09:14:52;;;;;;;10.05;2.80;;;;;;;;;;5030456;28;20040;-62
2023/03/04 09:17:18;;;;;;;9.80;2.53;;;;;;;;;;5030997;28;20109;-62
2023/03/04 09:19:43;;;;;;;9.60;2.70;;;;;;;;;;5026682;28;20040;-63
2023/03/04 09:22:08;;;;;;;9.68;2.45;;;;;;;;;;5026082;28;20032;-63
2023/03/04 09:24:34;;;;;;;7.38;2.53;;;;;;;;;;5029386;28;20069;-63
2023/03/04 09:26:59;;;;;;;10.48;2.67;;;;;;;;;;5033921;28;20036;-63
2023/03/04 09:29:24;;;;;;;8.48;2.40;;;;;;;;;;5032608;28;20076;-63
2023/03/04 09:31:50;;;;;;;7.60;2.42;;;;;;;;;;5036279;28;20407;-63
2023/03/04 09:34:15;;;;;;;7.18;2.42;;;;;;;;;;5033781;28;20032;-64
2023/03/04 09:36:41;;;;;;;6.93;2.30;;;;;;;;;;5034258;28;20040;-63
2023/03/04 09:39:06;;;;;;;8.63;2.85;;;;;;;;;;5036785;28;20059;-63
2023/03/04 09:41:37;;;;;;;8.07;2.55;;;;;;;;;;5030887;28;20029;-63
2023/03/04 09:44:26;;;;;;;9.82;2.60;;;;;;;;;;5032608;28;20073;-63
2023/03/04 09:46:55;;;;;;;8.05;2.33;;;;;;;;;;5019638;28;20075;-62
2023/03/04 09:49:21;;;;;;;5.15;2.40;;;;;;;;;;5013965;28;20044;-63
2023/03/04 09:52:09;;;;;;;11.43;3.22;;;;;;;;;;5040241;28;20056;-63
2023/03/04 09:55:01;;;;;;;6.80;2.50;;;;;;;;;;5051169;28;20465;-64
2023/03/04 09:57:39;;;;;;;7.70;2.60;;;;;;;;;;5034319;28;20083;-63
2023/03/04 10:00:20;;;;;;;10.57;2.78;;;;;;;;;;5031332;28;20041;-62
2023/03/04 10:03:23;;;;;;;8.63;2.60;;;;;;;;;;5028663;28;20171;-63
2023/03/04 10:06:03;;;;;;;5.20;2.63;;;;;;;;;;5027669;28;20076;-62
2023/03/04 10:08:51;;;;;;;3.75;2.10;;;;;;;;;;5030396;28;20032;-63
2023/03/04 10:11:23;;;;;;;10.05;3.10;;;;;;;;;;5029247;28;20382;-64
2023/03/04 10:14:10;;;;;;;8.43;2.30;;;;;;;;;;5029735;28;20510;-63
2023/03/04 10:16:44;;;;;;;7.10;2.50;;;;;;;;;;5030747;28;20148;-63
2023/03/04 10:19:12;;;;;;;8.43;2.60;;;;;;;;;;5028734;28;20034;-63
2023/03/04 10:21:43;;;;;;;3.92;1.73;;;;;;;;;;5029965;28;20595;-63
2023/03/04 10:24:16;;;;;;;5.38;2.17;;;;;;;;;;5031587;28;20060;-63
2023/03/04 10:26:44;;;;;;;10.27;2.72;;;;;;;;;;5031760;28;20522;-63
2023/03/04 10:29:21;;;;;;;9.35;2.40;;;;;;;;;;5031744;28;20021;-63
2023/03/04 10:31:48;;;;;;;7.75;2.50;;;;;;;;;;5031532;28;20033;-63
2023/03/04 10:34:14;;;;;;;8.50;2.45;;;;;;;;;;5029528;28;20415;-64
2023/03/04 10:36:49;;;;;;;8.82;2.63;;;;;;;;;;5029903;28;20033;-64
2023/03/04 10:39:26;;;;;;;5.03;2.40;;;;;;;;;;5031552;28;20033;-64
2023/03/04 10:42:03;;;;;;;9.23;2.42;;;;;;;;;;5031110;28;20468;-63
2023/03/04 10:44:29;;;;;;;7.35;2.42;;;;;;;;;;5028076;28;20053;-64
2023/03/04 10:46:56;;;;;;;10.60;3.53;;;;;;;;;;5028510;28;20033;-65
2023/03/04 10:49:23;;;;;;;14.80;4.20;;;;;;;;;;5028655;28;20041;-65
2023/03/04 10:52:17;;;;;;;14.70;4.85;;;;;;;;;;5028541;28;20038;-64
2023/03/04 10:54:49;;;;;;;15.10;4.88;;;;;;;;;;5030781;28;20040;-63
2023/03/04 10:57:25;;;;;;;7.18;2.58;;;;;;;;;;5030240;28;20068;-63
2023/03/04 10:59:57;;;;;;;9.18;2.85;;;;;;;;;;5031674;28;20485;-61
2023/03/04 11:02:30;;;;;;;6.68;3.33;;;;;;;;;;5030009;28;20104;-64
2023/03/04 11:05:20;;;;;;;6.55;2.80;;;;;;;;;;5030878;28;20533;-62
2023/03/04 11:07:50;;;;;;;9.23;2.67;;;;;;;;;;5030786;28;20041;-63
2023/03/04 11:10:19;;;;;;;11.10;3.20;;;;;;;;;;5020340;28;20037;-63
2023/03/04 11:12:50;;;;;;;5.85;2.22;;;;;;;;;;5033574;28;20163;-63
2023/03/04 11:15:26;;;;;;;6.47;2.20;;;;;;;;;;5031962;28;20103;-63
2023/03/04 11:17:55;;;;;;;7.22;2.15;;;;;;;;;;5018610;28;20376;-63
2023/03/04 11:20:35;;;;;;;6.53;2.30;;;;;;;;;;5031148;28;20041;-64
2023/03/04 11:23:30;;;;;;;4.88;2.08;;;;;;;;;;5032100;28;20064;-63
2023/03/04 11:26:00;;;;;;;4.22;2.05;;;;;;;;;;5032104;28;20041;-62
2023/03/04 11:28:50;;;;;;;4.30;2.10;;;;;;;;;;5033337;28;20033;-63
2023/03/04 11:31:39;;;;;;;5.37;2.20;;;;;;;;;;5034494;28;20033;-63
2023/03/04 11:34:26;;;;;;;6.72;2.38;;;;;;;;;;5033214;28;20029;-63
2023/03/04 11:37:02;;;;;;;4.90;2.10;;;;;;;;;;5033233;28;20029;-63
2023/03/04 11:39:41;;;;;;;7.47;2.47;;;;;;;;;;5031927;28;20025;-64
2023/03/04 11:42:34;;;;;;;4.50;2.10;;;;;;;;;;5033319;28;20516;-63
2023/03/04 11:45:00;;;;;;;4.30;2.30;;;;;;;;;;5034214;28;20401;-63
2023/03/04 11:47:56;;;;;;;7.28;2.85;;;;;;;;;;5033549;28;20021;-62
2023/03/04 11:50:44;;;;;;;5.78;3.20;;;;;;;;;;5029716;28;20461;-63
2023/03/04 11:53:52;;;;;;;5.40;2.15;;;;;;;;;;5033310;28;20076;-62
2023/03/04 11:56:26;;;;;;;6.07;3.00;;;;;;;;;;5032899;28;20096;-63
2023/03/04 11:58:54;;;;;;;9.68;2.70;;;;;;;;;;5032515;28;20025;-63
2023/03/04 12:01:33;;;;;;;5.35;2.53;;;;;;;;;;5031588;28;20037;-63
2023/03/04 12:04:36;;;;;;;4.43;2.28;;;;;;;;;;5036420;28;20355;-63
2023/03/04 12:07:15;;;;;;;6.32;2.63;;;;;;;;;;5032427;28;20076;-63
2023/03/04 12:10:25;;;;;;;6.70;2.90;;;;;;;;;;5033145;28;20041;-63
2023/03/04 12:13:18;;;;;;;6.00;2.88;;;;;;;;;;5014678;28;20041;-62
2023/03/04 12:16:17;;;;;;;6.95;2.60;;;;;;;;;;5031855;28;20052;-62
2023/03/04 12:19:07;;;;;;;5.82;2.47;;;;;;;;;;5032985;28;20048;-61
2023/03/04 12:21:44;;;;;;;5.25;2.50;;;;;;;;;;5031945;28;20029;-63
2023/03/04 12:24:37;;;;;;;6.60;2.97;;;;;;;;;;5030746;28;20056;-62
2023/03/04 12:27:35;;;;;;;8.18;3.40;;;;;;;;;;5033164;28;20044;-63
2023/03/04 12:30:25;;;;;;;10.90;3.25;;;;;;;;;;5032962;28;20029;-61
2023/03/04 12:33:02;;;;;;;9.33;3.10;;;;;;;;;;5017090;28;20472;-63
2023/03/04 12:35:32;;;;;;;7.22;3.42;;;;;;;;;;5024300;28;20064;-64
2023/03/04 12:38:09;;;;;;;9.45;3.88;;;;;;;;;;5027957;28;20029;-63
2023/03/04 12:40:52;;;;;;;9.65;3.83;;;;;;;;;;5033541;28;20107;-62
2023/03/04 12:43:46;;;;;;;11.27;3.42;;;;;;;;;;5032766;28;20036;-62
2023/03/04 12:46:40;;;;;;;8.23;3.35;;;;;;;;;;5012852;28;20045;-61
2023/03/04 12:49:23;;;;;;;6.50;3.10;;;;;;;;;;5032410;28;20025;-61
2023/03/04 12:52:08;;;;;;;7.60;3.38;;;;;;;;;;5027883;28;20478;-61
2023/03/04 12:54:44;;;;;;;8.82;3.45;;;;;;;;;;5035250;28;20025;-61
2023/03/04 12:57:13;;;;;;;6.35;3.70;;;;;;;;;;5034779;28;20473;-62
2023/03/04 12:59:45;;;;;;;7.22;3.45;;;;;;;;;;5030686;28;20038;-61
2023/03/04 13:02:33;;;;;;;7.95;4.07;;;;;;;;;;5032548;28;20025;-62
2023/03/04 13:05:23;;;;;;;7.63;3.90;;;;;;;;;;5030986;28;20383;-63
2023/03/04 13:08:18;;;;;;;9.93;3.47;;;;;;;;;;5012787;28;20501;-61
2023/03/04 13:10:44;;;;;;;13.95;5.60;;;;;;;;;;5015949;28;20041;-62
2023/03/04 13:13:31;;;;;;;10.57;3.97;;;;;;;;;;5031829;28;20037;-62
2023/03/04 13:16:09;;;;;;;7.63;3.35;;;;;;;;;;5030096;28;20099;-62
2023/03/04 13:18:38;;;;;;;5.38;2.60;;;;;;;;;;5030373;28;20033;-62
2023/03/04 13:21:12;;;;;;;5.57;3.13;;;;;;;;;;5031260;28;20358;-62
2023/03/04 13:23:38;;;;;;;8.18;2.85;;;;;;;;;;5027665;28;20037;-61
2023/03/04 13:26:20;;;;;;;7.10;2.65;;;;;;;;;;5030279;28;20108;-60
2023/03/04 13:28:50;;;;;;;10.88;2.97;;;;;;;;;;5030905;28;20029;-60
2023/03/04 13:31:19;;;;;;;8.80;3.22;;;;;;;;;;5030468;28;20113;-60
2023/03/04 13:33:45;;;;;;;7.07;2.92;;;;;;;;;;5030612;28;20071;-62
2023/03/04 13:36:29;;;;;;;7.45;3.40;;;;;;;;;;5025703;28;20219;-63
2023/03/04 13:39:16;;;;;;;8.68;2.83;;;;;;;;;;5042099;28;20381;-61
2023/03/04 13:41:52;;;;;;;5.03;2.30;;;;;;;;;;5030545;28;20033;-60
2023/03/04 13:44:43;;;;;;;5.45;2.13;;;;;;;;;;5011758;28;20046;-61
2023/03/04 13:47:20;;;;;;;7.77;2.60;;;;;;;;;;5011818;28;20040;-60
2023/03/04 13:49:45;;;;;;;6.60;2.97;;;;;;;;;;5011469;28;20626;-61
2023/03/04 13:52:33;;;;;;;5.93;2.30;;;;;;;;;;5014829;28;20022;-60
2023/03/04 13:55:29;;;;;;;5.35;2.50;;;;;;;;;;5042438;28;20033;-61
2023/03/04 13:57:55;;;;;;;7.10;2.20;;;;;;;;;;5017880;28;20029;-61
2023/03/04 14:00:20;;;;;;;6.63;2.40;;;;;;;;;;5031585;28;20112;-61
2023/03/04 14:02:46;;;;;;;4.05;1.83;;;;;;;;;;5030749;28;20041;-61
2023/03/04 14:05:11;;;;;;;6.55;2.67;;;;;;;;;;5031601;28;20061;-61
2023/03/04 14:07:36;;;;;;;5.82;2.33;;;;;;;;;;5029593;28;20038;-61
2023/03/04 14:10:11;;;;;;;8.75;2.40;;;;;;;;;;5027580;28;20466;-61
2023/03/04 14:12:43;;;;;;;6.63;2.42;;;;;;;;;;5030141;28;20487;-63
2023/03/04 14:15:14;;;;;;;5.15;2.30;;;;;;;;;;5028696;28;20120;-62
2023/03/04 14:17:46;;;;;;;7.38;1.83;;;;;;;;;;5030486;28;20040;-63
2023/03/04 14:20:27;;;;;;;6.88;2.25;;;;;;;;;;5031922;28;20025;-61
2023/03/04 14:22:53;;;;;;;6.18;2.13;;;;;;;;;;5030964;28;20098;-60
2023/03/04 14:25:28;;;;;;;5.15;2.00;;;;;;;;;;5031982;28;20037;-62
2023/03/04 14:28:12;;;;;;;11.35;3.20;;;;;;;;;;5030854;28;20040;-60
2023/03/04 14:30:42;;;;;;;7.10;2.25;;;;;;;;;;5029754;28;20037;-60
2023/03/04 14:33:13;;;;;;;8.60;3.05;;;;;;;;;;5032055;28;20025;-59
2023/03/04 14:35:39;;;;;;;9.43;2.65;;;;;;;;;;5035469;28;20033;-61
2023/03/04 14:38:14;;;;;;;6.18;2.28;;;;;;;;;;5026141;28;20033;-62
2023/03/04 14:40:44;;;;;;;9.70;2.10;;;;;;;;;;5014877;28;20037;-63
2023/03/04 14:43:19;;;;;;;8.32;1.88;;;;;;;;;;5024162;28;20025;-62
2023/03/04 14:45:48;;;;;;;8.95;2.90;;;;;;;;;;5015798;28;20393;-62
2023/03/04 14:48:29;;;;;;;7.32;2.40;;;;;;;;;;5052376;28;20029;-63
2023/03/04 14:50:56;;;;;;;10.88;2.22;;;;;;;;;;5015346;28;20041;-63
2023/03/04 14:53:24;;;;;;;7.03;2.05;;;;;;;;;;5031092;28;20029;-62